createdAt,value
2022-10-05T00:04:29.252Z,8.70
2022-10-05T00:11:31.533Z,8.18
2022-10-05T00:18:33.304Z,7.70
2022-10-05T00:25:35.027Z,8.00
2022-10-05T00:32:36.789Z,8.80
2022-10-05T00:39:39.105Z,8.45
2022-10-05T00:46:40.940Z,8.65
2022-10-05T00:53:57.706Z,7.90
2022-10-05T01:01:02.464Z,8.13
2022-10-05T01:08:13.598Z,8.40
2022-10-05T01:15:36.381Z,8.93
2022-10-05T01:22:47.280Z,8.40
2022-10-05T01:29:56.974Z,9.25
2022-10-05T01:37:11.274Z,8.60
2022-10-05T01:44:18.025Z,8.48
2022-10-05T01:51:29.516Z,8.57
2022-10-05T01:58:49.722Z,9.60
2022-10-05T02:06:01.119Z,9.70
2022-10-05T02:13:09.686Z,9.15
2022-10-05T02:20:12.464Z,9.77
2022-10-05T02:27:16.631Z,9.70
2022-10-05T02:34:22.875Z,9.48
2022-10-05T02:41:40.246Z,9.27
2022-10-05T02:49:04.701Z,9.18
2022-10-05T02:56:18.379Z,9.82
2022-10-05T03:03:24.206Z,9.25
2022-10-05T03:10:26.234Z,9.52
2022-10-05T03:17:30.598Z,8.88
2022-10-05T03:24:53.954Z,10.02
2022-10-05T03:32:00.808Z,9.20
2022-10-05T03:39:06.257Z,10.52
2022-10-05T03:46:30.966Z,9.88
2022-10-05T03:53:37.967Z,9.93
2022-10-05T04:00:40.748Z,9.15
2022-10-05T04:07:51.325Z,10.25
2022-10-05T04:15:15.245Z,8.82
2022-10-05T04:22:19.655Z,9.13
2022-10-05T04:29:27.412Z,8.02
2022-10-05T04:36:34.787Z,8.20
2022-10-05T04:43:55.219Z,8.48
2022-10-05T04:50:56.970Z,8.02
2022-10-05T04:58:02.581Z,7.78
2022-10-05T05:05:13.526Z,7.50
2022-10-05T05:12:24.358Z,8.40
2022-10-05T05:19:26.068Z,8.55
2022-10-05T05:26:38.887Z,8.65
2022-10-05T05:33:43.846Z,9.48
2022-10-05T05:41:07.421Z,10.45
2022-10-05T05:48:24.503Z,8.00
2022-10-05T05:55:30.439Z,9.13
2022-10-05T06:02:38.098Z,9.15
2022-10-05T06:09:46.332Z,9.85
2022-10-05T06:16:54.395Z,11.30
2022-10-05T06:24:14.197Z,11.15
2022-10-05T06:31:42.295Z,10.13
2022-10-05T06:38:46.793Z,9.63
2022-10-05T06:45:48.957Z,10.18
2022-10-05T06:52:51.399Z,8.98
2022-10-05T07:00:00.521Z,9.43
2022-10-05T07:07:12.325Z,9.85
2022-10-05T07:14:22.657Z,9.30
2022-10-05T07:21:27.451Z,9.52
2022-10-05T07:28:34.619Z,9.10
2022-10-05T07:36:03.773Z,8.15
2022-10-05T07:43:25.750Z,7.60
2022-10-05T07:50:30.587Z,7.30
2022-10-05T07:57:51.198Z,7.43
2022-10-05T08:05:00.079Z,9.02
2022-10-05T08:12:01.926Z,7.50
2022-10-05T08:19:15.521Z,8.20
2022-10-05T08:26:29.154Z,7.70
2022-10-05T08:33:35.934Z,6.70
2022-10-05T08:40:53.753Z,4.97
2022-10-05T08:48:14.210Z,5.63
2022-10-05T08:55:22.373Z,5.50
2022-10-05T09:02:48.211Z,5.38
2022-10-05T09:10:13.185Z,16.80
2022-10-05T09:17:35.859Z,7.78
2022-10-05T09:24:48.510Z,4.78
2022-10-05T09:31:53.511Z,5.60
2022-10-05T09:39:01.182Z,4.75
2022-10-05T09:46:12.241Z,4.78
2022-10-05T09:53:33.178Z,5.32
2022-10-05T10:01:03.596Z,4.60
2022-10-05T10:08:34.436Z,3.65
2022-10-05T10:15:54.842Z,3.22
2022-10-05T10:22:56.601Z,4.32
2022-10-05T10:30:14.732Z,3.92
2022-10-05T10:37:19.247Z,4.50
2022-10-05T10:44:30.111Z,3.88
2022-10-05T10:51:50.178Z,4.97
2022-10-05T10:59:00.975Z,3.72
2022-10-05T11:06:17.493Z,4.38
2022-10-05T11:13:19.198Z,4.47
2022-10-05T11:20:39.751Z,4.03
2022-10-05T11:27:47.342Z,3.28
2022-10-05T11:34:57.581Z,4.47
2022-10-05T11:42:18.014Z,4.57
2022-10-05T11:49:22.439Z,4.70
2022-10-05T11:56:24.163Z,6.28
2022-10-05T12:03:25.895Z,3.88
2022-10-05T12:10:45.922Z,5.18
2022-10-05T12:17:52.061Z,3.85
2022-10-05T12:25:01.745Z,3.42
2022-10-05T12:32:19.959Z,3.33
2022-10-05T12:39:21.683Z,3.83
2022-10-05T12:46:43.157Z,3.22
2022-10-05T12:53:50.787Z,4.70
2022-10-05T13:00:58.084Z,3.78
2022-10-05T13:08:08.506Z,4.07
2022-10-05T13:15:13.351Z,3.55
2022-10-05T13:22:19.848Z,3.00
2022-10-05T13:29:29.342Z,3.80
2022-10-05T13:36:44.002Z,4.20
2022-10-05T13:43:58.791Z,4.25
2022-10-05T13:51:05.613Z,3.50
2022-10-05T13:58:18.841Z,3.47
2022-10-05T14:05:28.240Z,3.42
2022-10-05T14:12:36.817Z,3.60
2022-10-05T14:19:46.218Z,3.27
2022-10-05T14:26:55.050Z,3.92
2022-10-05T14:33:56.801Z,4.30
2022-10-05T14:41:04.585Z,4.50
2022-10-05T14:48:10.994Z,4.07
2022-10-05T14:55:18.650Z,4.30
2022-10-05T15:02:42.576Z,4.45
2022-10-05T15:10:03.516Z,4.95
2022-10-05T15:17:12.934Z,5.63
2022-10-05T15:24:44.203Z,4.85
2022-10-05T15:31:54.955Z,5.45
2022-10-05T15:39:15.545Z,6.43
2022-10-05T15:46:20.139Z,5.25
2022-10-05T15:53:25.598Z,6.43
2022-10-05T16:00:27.946Z,6.70
2022-10-05T16:07:55.480Z,5.95
2022-10-05T16:14:57.952Z,7.82
2022-10-05T16:22:02.893Z,8.02
2022-10-05T16:29:13.619Z,8.85
2022-10-05T16:36:18.257Z,9.02
2022-10-05T16:43:41.755Z,9.00
2022-10-05T16:50:54.824Z,9.02
2022-10-05T16:57:57.226Z,9.32
2022-10-05T17:05:18.043Z,9.98
2022-10-05T17:12:27.004Z,10.15
2022-10-05T17:19:49.145Z,10.45
2022-10-05T17:26:53.982Z,11.48
2022-10-05T17:34:26.625Z,9.98
2022-10-05T17:41:29.821Z,9.63
2022-10-05T17:48:43.016Z,10.10
2022-10-05T17:55:45.572Z,10.02
2022-10-05T18:02:48.041Z,11.25
2022-10-05T18:09:57.660Z,12.98
2022-10-05T18:17:12.744Z,12.73
2022-10-05T18:24:14.757Z,14.00
2022-10-05T18:31:27.133Z,15.88
2022-10-05T18:38:38.270Z,18.42
2022-10-05T18:45:47.036Z,17.50
2022-10-05T18:52:55.229Z,15.50
2022-10-05T19:00:16.066Z,14.50
2022-10-05T19:07:32.655Z,12.95
2022-10-05T19:14:44.450Z,11.95
2022-10-05T19:21:46.344Z,13.43
2022-10-05T19:28:48.434Z,12.48
2022-10-05T19:35:58.482Z,13.80
2022-10-05T19:43:29.632Z,13.15
2022-10-05T19:50:37.862Z,12.18
2022-10-05T19:57:46.439Z,12.35
2022-10-05T20:04:50.051Z,12.37
2022-10-05T20:11:52.422Z,12.65
2022-10-05T20:19:12.700Z,11.77
2022-10-05T20:27:00.658Z,11.00
2022-10-05T20:34:03.339Z,9.85
2022-10-05T20:41:06.200Z,10.13
2022-10-05T20:48:08.123Z,9.73
2022-10-05T20:55:11.888Z,9.93
2022-10-05T21:02:13.651Z,9.05
2022-10-05T21:09:16.379Z,9.00
2022-10-05T21:16:18.868Z,9.75
2022-10-05T21:23:20.622Z,9.30
2022-10-05T21:30:22.362Z,9.48
2022-10-05T21:37:24.300Z,9.30
2022-10-05T21:44:26.078Z,9.25
2022-10-05T21:51:28.532Z,9.32
2022-10-05T21:58:30.839Z,10.15
2022-10-05T22:05:32.866Z,9.27
2022-10-05T22:12:34.848Z,9.57
2022-10-05T22:19:37.183Z,9.98
2022-10-05T22:26:40.515Z,10.00
2022-10-05T22:33:42.381Z,9.80
2022-10-05T22:40:44.111Z,9.05
2022-10-05T22:47:45.852Z,9.30
2022-10-05T22:54:47.511Z,8.63
2022-10-05T23:01:49.313Z,8.60
2022-10-05T23:08:51.314Z,8.73
2022-10-05T23:15:53.148Z,8.48
2022-10-05T23:22:55.105Z,8.57
2022-10-05T23:29:56.876Z,8.90
2022-10-05T23:36:58.768Z,9.07
2022-10-05T23:44:00.485Z,8.45
2022-10-05T23:51:02.314Z,8.52
2022-10-05T23:58:04.284Z,8.32
